sensor_id;sensor_type;location;lat;lon;timestamp;temperature;humidity
2855;DHT22;1435;49.472;10.940;2022-08-19T00:01:40;23.00;99.90
2855;DHT22;1435;49.472;10.940;2022-08-19T00:06:44;22.90;99.90
2855;DHT22;1435;49.472;10.940;2022-08-19T00:11:47;22.90;99.90
2855;DHT22;1435;49.472;10.940;2022-08-19T00:16:49;22.80;99.90
2855;DHT22;1435;49.472;10.940;2022-08-19T00:21:54;22.80;99.90
2855;DHT22;1435;49.472;10.940;2022-08-19T00:26:58;22.80;99.90
2855;DHT22;1435;49.472;10.940;2022-08-19T00:31:59;22.70;99.90
2855;DHT22;1435;49.472;10.940;2022-08-19T00:37:01;22.60;99.90
2855;DHT22;1435;49.472;10.940;2022-08-19T00:42:04;22.60;99.90
2855;DHT22;1435;49.472;10.940;2022-08-19T00:47:06;22.60;99.90
2855;DHT22;1435;49.472;10.940;2022-08-19T00:52:12;22.50;99.90
2855;DHT22;1435;49.472;10.940;2022-08-19T00:57:19;22.50;99.90
2855;DHT22;1435;49.472;10.940;2022-08-19T01:02:24;22.50;99.90
2855;DHT22;1435;49.472;10.940;2022-08-19T01:07:26;22.40;99.90
2855;DHT22;1435;49.472;10.940;2022-08-19T01:12:29;22.40;99.90
2855;DHT22;1435;49.472;10.940;2022-08-19T01:17:31;22.40;99.90
2855;DHT22;1435;49.472;10.940;2022-08-19T01:22:38;22.30;99.90
2855;DHT22;1435;49.472;10.940;2022-08-19T01:27:48;22.30;99.90
2855;DHT22;1435;49.472;10.940;2022-08-19T01:32:51;22.30;99.90
2855;DHT22;1435;49.472;10.940;2022-08-19T01:37:57;22.30;99.90
2855;DHT22;1435;49.472;10.940;2022-08-19T01:43:00;22.20;99.90
2855;DHT22;1435;49.472;10.940;2022-08-19T01:48:03;22.20;99.90
2855;DHT22;1435;49.472;10.940;2022-08-19T01:53:11;22.10;99.90
2855;DHT22;1435;49.472;10.940;2022-08-19T01:58:18;22.10;99.90
2855;DHT22;1435;49.472;10.940;2022-08-19T02:03:21;22.20;99.90
2855;DHT22;1435;49.472;10.940;2022-08-19T02:08:24;22.10;99.90
2855;DHT22;1435;49.472;10.940;2022-08-19T02:13:26;22.10;99.90
2855;DHT22;1435;49.472;10.940;2022-08-19T02:18:28;22.00;99.90
2855;DHT22;1435;49.472;10.940;2022-08-19T02:23:32;22.00;99.90
2855;DHT22;1435;49.472;10.940;2022-08-19T02:28:34;22.00;99.90
2855;DHT22;1435;49.472;10.940;2022-08-19T02:33:36;22.00;99.90
2855;DHT22;1435;49.472;10.940;2022-08-19T02:38:40;22.00;99.90
2855;DHT22;1435;49.472;10.940;2022-08-19T02:43:42;22.00;99.90
2855;DHT22;1435;49.472;10.940;2022-08-19T02:48:43;21.90;99.90
2855;DHT22;1435;49.472;10.940;2022-08-19T02:53:47;22.00;99.90
2855;DHT22;1435;49.472;10.940;2022-08-19T02:58:48;21.90;99.90
2855;DHT22;1435;49.472;10.940;2022-08-19T03:03:50;21.90;99.90
2855;DHT22;1435;49.472;10.940;2022-08-19T03:08:54;21.90;99.90
2855;DHT22;1435;49.472;10.940;2022-08-19T03:13:56;21.90;99.90
2855;DHT22;1435;49.472;10.940;2022-08-19T03:18:58;21.90;99.90
2855;DHT22;1435;49.472;10.940;2022-08-19T03:24:04;22.00;99.90
2855;DHT22;1435;49.472;10.940;2022-08-19T03:29:08;21.90;99.90
2855;DHT22;1435;49.472;10.940;2022-08-19T03:34:11;21.90;99.90
2855;DHT22;1435;49.472;10.940;2022-08-19T03:39:15;21.90;99.90
2855;DHT22;1435;49.472;10.940;2022-08-19T03:44:18;21.90;99.90
2855;DHT22;1435;49.472;10.940;2022-08-19T03:49:22;21.80;99.90
2855;DHT22;1435;49.472;10.940;2022-08-19T03:54:26;21.80;99.90
2855;DHT22;1435;49.472;10.940;2022-08-19T03:59:31;21.70;99.90
2855;DHT22;1435;49.472;10.940;2022-08-19T04:04:33;21.60;99.90
2855;DHT22;1435;49.472;10.940;2022-08-19T04:09:37;21.60;99.90
2855;DHT22;1435;49.472;10.940;2022-08-19T04:14:38;21.60;99.90
2855;DHT22;1435;49.472;10.940;2022-08-19T04:19:40;21.60;99.90
2855;DHT22;1435;49.472;10.940;2022-08-19T04:24:44;21.60;99.90
2855;DHT22;1435;49.472;10.940;2022-08-19T04:29:46;21.60;99.90
2855;DHT22;1435;49.472;10.940;2022-08-19T04:34:48;21.60;99.90
2855;DHT22;1435;49.472;10.940;2022-08-19T04:39:51;21.50;99.90
2855;DHT22;1435;49.472;10.940;2022-08-19T04:45:13;21.60;99.90
2855;DHT22;1435;49.472;10.940;2022-08-19T04:50:15;21.60;99.90
2855;DHT22;1435;49.472;10.940;2022-08-19T04:55:18;21.60;99.90
2855;DHT22;1435;49.472;10.940;2022-08-19T05:00:20;21.60;99.90
2855;DHT22;1435;49.472;10.940;2022-08-19T05:05:22;21.60;99.90
2855;DHT22;1435;49.472;10.940;2022-08-19T05:10:25;21.60;99.90
2855;DHT22;1435;49.472;10.940;2022-08-19T05:15:27;21.60;99.90
2855;DHT22;1435;49.472;10.940;2022-08-19T05:20:29;21.60;99.90
2855;DHT22;1435;49.472;10.940;2022-08-19T05:25:49;21.60;99.90
2855;DHT22;1435;49.472;10.940;2022-08-19T05:30:51;21.60;99.90
2855;DHT22;1435;49.472;10.940;2022-08-19T05:35:55;21.60;99.90
2855;DHT22;1435;49.472;10.940;2022-08-19T05:40:58;21.60;99.90
2855;DHT22;1435;49.472;10.940;2022-08-19T05:46:00;21.60;99.90
2855;DHT22;1435;49.472;10.940;2022-08-19T05:51:04;21.60;99.90
2855;DHT22;1435;49.472;10.940;2022-08-19T05:56:12;21.50;99.90
2855;DHT22;1435;49.472;10.940;2022-08-19T06:01:17;21.60;99.90
2855;DHT22;1435;49.472;10.940;2022-08-19T06:06:20;21.60;99.90
2855;DHT22;1435;49.472;10.940;2022-08-19T06:11:28;21.60;99.90
2855;DHT22;1435;49.472;10.940;2022-08-19T06:16:32;21.60;99.90
2855;DHT22;1435;49.472;10.940;2022-08-19T06:21:37;21.50;99.90
2855;DHT22;1435;49.472;10.940;2022-08-19T06:26:43;21.50;99.90
2855;DHT22;1435;49.472;10.940;2022-08-19T06:31:48;21.60;99.90
2855;DHT22;1435;49.472;10.940;2022-08-19T06:36:51;21.60;99.90
2855;DHT22;1435;49.472;10.940;2022-08-19T06:41:57;21.70;99.90
2855;DHT22;1435;49.472;10.940;2022-08-19T06:47:00;21.70;99.90
2855;DHT22;1435;49.472;10.940;2022-08-19T06:52:03;21.70;99.90
2855;DHT22;1435;49.472;10.940;2022-08-19T06:57:07;21.70;99.90
2855;DHT22;1435;49.472;10.940;2022-08-19T07:02:09;21.80;99.90
2855;DHT22;1435;49.472;10.940;2022-08-19T07:07:13;21.80;99.90
2855;DHT22;1435;49.472;10.940;2022-08-19T07:12:17;21.90;99.90
2855;DHT22;1435;49.472;10.940;2022-08-19T07:17:19;21.90;99.90
2855;DHT22;1435;49.472;10.940;2022-08-19T07:22:21;22.00;99.90
2855;DHT22;1435;49.472;10.940;2022-08-19T07:27:25;22.00;99.90
2855;DHT22;1435;49.472;10.940;2022-08-19T07:32:27;22.10;99.90
2855;DHT22;1435;49.472;10.940;2022-08-19T07:37:31;22.10;99.90
2855;DHT22;1435;49.472;10.940;2022-08-19T07:42:34;22.10;99.90
2855;DHT22;1435;49.472;10.940;2022-08-19T07:47:35;22.20;99.90
2855;DHT22;1435;49.472;10.940;2022-08-19T07:52:38;22.20;99.90
2855;DHT22;1435;49.472;10.940;2022-08-19T07:57:41;22.10;99.90
2855;DHT22;1435;49.472;10.940;2022-08-19T08:02:43;22.10;99.90
2855;DHT22;1435;49.472;10.940;2022-08-19T08:07:44;22.10;99.90
2855;DHT22;1435;49.472;10.940;2022-08-19T08:13:05;22.10;99.90
2855;DHT22;1435;49.472;10.940;2022-08-19T08:18:07;22.10;99.90
2855;DHT22;1435;49.472;10.940;2022-08-19T08:23:09;22.10;99.90
2855;DHT22;1435;49.472;10.940;2022-08-19T08:28:27;22.10;99.90
2855;DHT22;1435;49.472;10.940;2022-08-19T08:33:30;22.00;99.90
2855;DHT22;1435;49.472;10.940;2022-08-19T08:38:32;21.90;99.90
2855;DHT22;1435;49.472;10.940;2022-08-19T08:43:38;21.90;99.90
2855;DHT22;1435;49.472;10.940;2022-08-19T08:48:47;22.00;99.90
2855;DHT22;1435;49.472;10.940;2022-08-19T08:53:51;22.00;99.90
2855;DHT22;1435;49.472;10.940;2022-08-19T08:58:58;22.10;99.90
2855;DHT22;1435;49.472;10.940;2022-08-19T09:04:03;22.10;99.90
2855;DHT22;1435;49.472;10.940;2022-08-19T09:09:12;22.20;99.90
2855;DHT22;1435;49.472;10.940;2022-08-19T09:14:23;22.20;99.90
2855;DHT22;1435;49.472;10.940;2022-08-19T09:19:29;22.20;99.90
2855;DHT22;1435;49.472;10.940;2022-08-19T09:24:31;22.20;99.90
2855;DHT22;1435;49.472;10.940;2022-08-19T09:29:34;22.20;99.90
2855;DHT22;1435;49.472;10.940;2022-08-19T09:34:36;22.10;99.90
2855;DHT22;1435;49.472;10.940;2022-08-19T09:39:38;22.20;99.90
2855;DHT22;1435;49.472;10.940;2022-08-19T09:44:43;22.20;99.90
2855;DHT22;1435;49.472;10.940;2022-08-19T09:49:44;22.20;99.90
2855;DHT22;1435;49.472;10.940;2022-08-19T09:54:51;22.20;99.90
2855;DHT22;1435;49.472;10.940;2022-08-19T09:59:54;22.20;99.90
2855;DHT22;1435;49.472;10.940;2022-08-19T10:04:56;22.20;99.90
2855;DHT22;1435;49.472;10.940;2022-08-19T10:10:16;22.20;99.90
2855;DHT22;1435;49.472;10.940;2022-08-19T10:15:19;22.20;99.90
2855;DHT22;1435;49.472;10.940;2022-08-19T10:20:21;22.20;99.90
2855;DHT22;1435;49.472;10.940;2022-08-19T10:25:23;22.20;99.90
2855;DHT22;1435;49.472;10.940;2022-08-19T10:30:26;22.20;99.90
2855;DHT22;1435;49.472;10.940;2022-08-19T10:35:28;22.20;99.90
2855;DHT22;1435;49.472;10.940;2022-08-19T10:40:29;22.20;99.90
2855;DHT22;1435;49.472;10.940;2022-08-19T10:45:33;22.20;99.90
2855;DHT22;1435;49.472;10.940;2022-08-19T10:50:36;22.20;99.90
2855;DHT22;1435;49.472;10.940;2022-08-19T10:56:04;22.20;99.90
2855;DHT22;1435;49.472;10.940;2022-08-19T11:01:25;22.20;99.90
2855;DHT22;1435;49.472;10.940;2022-08-19T11:06:27;22.20;99.90
2855;DHT22;1435;49.472;10.940;2022-08-19T11:11:30;22.30;99.90
2855;DHT22;1435;49.472;10.940;2022-08-19T11:16:33;22.30;99.90
2855;DHT22;1435;49.472;10.940;2022-08-19T11:21:37;22.30;99.90
2855;DHT22;1435;49.472;10.940;2022-08-19T11:26:40;22.30;99.90
2855;DHT22;1435;49.472;10.940;2022-08-19T11:31:45;22.30;99.90
2855;DHT22;1435;49.472;10.940;2022-08-19T11:36:48;22.30;99.90
2855;DHT22;1435;49.472;10.940;2022-08-19T11:41:51;22.30;99.90
2855;DHT22;1435;49.472;10.940;2022-08-19T11:46:54;22.40;99.90
2855;DHT22;1435;49.472;10.940;2022-08-19T11:51:55;22.40;99.90
2855;DHT22;1435;49.472;10.940;2022-08-19T11:56:58;22.40;99.90
2855;DHT22;1435;49.472;10.940;2022-08-19T12:02:02;22.40;99.90
2855;DHT22;1435;49.472;10.940;2022-08-19T12:07:04;22.40;99.90
2855;DHT22;1435;49.472;10.940;2022-08-19T12:12:07;22.40;99.90
2855;DHT22;1435;49.472;10.940;2022-08-19T12:17:11;22.40;99.90
2855;DHT22;1435;49.472;10.940;2022-08-19T12:22:13;22.40;99.90
2855;DHT22;1435;49.472;10.940;2022-08-19T12:27:15;22.50;99.90
2855;DHT22;1435;49.472;10.940;2022-08-19T12:32:18;22.50;99.90
2855;DHT22;1435;49.472;10.940;2022-08-19T12:37:20;22.50;99.90
2855;DHT22;1435;49.472;10.940;2022-08-19T12:42:22;22.50;99.90
2855;DHT22;1435;49.472;10.940;2022-08-19T12:47:25;22.50;99.90
2855;DHT22;1435;49.472;10.940;2022-08-19T12:52:27;22.50;99.90
2855;DHT22;1435;49.472;10.940;2022-08-19T12:57:29;22.40;99.90
2855;DHT22;1435;49.472;10.940;2022-08-19T13:02:34;22.30;99.90
2855;DHT22;1435;49.472;10.940;2022-08-19T13:07:37;22.20;99.90
2855;DHT22;1435;49.472;10.940;2022-08-19T13:12:39;22.20;99.90
2855;DHT22;1435;49.472;10.940;2022-08-19T13:17:43;22.20;99.90
2855;DHT22;1435;49.472;10.940;2022-08-19T13:22:45;22.00;99.90
2855;DHT22;1435;49.472;10.940;2022-08-19T13:27:49;22.00;99.90
2855;DHT22;1435;49.472;10.940;2022-08-19T13:32:52;22.00;99.90
2855;DHT22;1435;49.472;10.940;2022-08-19T13:38:13;22.00;99.90
2855;DHT22;1435;49.472;10.940;2022-08-19T13:43:16;22.00;99.90
2855;DHT22;1435;49.472;10.940;2022-08-19T13:48:19;21.90;99.90
2855;DHT22;1435;49.472;10.940;2022-08-19T13:53:21;21.90;99.90
2855;DHT22;1435;49.472;10.940;2022-08-19T13:58:23;21.90;99.90
2855;DHT22;1435;49.472;10.940;2022-08-19T14:03:27;21.90;99.90
2855;DHT22;1435;49.472;10.940;2022-08-19T14:08:29;21.90;99.90
2855;DHT22;1435;49.472;10.940;2022-08-19T14:13:32;21.90;99.90
2855;DHT22;1435;49.472;10.940;2022-08-19T14:18:36;21.90;99.90
2855;DHT22;1435;49.472;10.940;2022-08-19T14:23:38;21.80;99.90
2855;DHT22;1435;49.472;10.940;2022-08-19T14:28:41;21.80;99.90
2855;DHT22;1435;49.472;10.940;2022-08-19T14:33:45;21.70;99.90
2855;DHT22;1435;49.472;10.940;2022-08-19T14:38:47;21.70;99.90
2855;DHT22;1435;49.472;10.940;2022-08-19T14:43:51;21.60;99.90
2855;DHT22;1435;49.472;10.940;2022-08-19T14:48:54;21.60;99.90
2855;DHT22;1435;49.472;10.940;2022-08-19T14:53:56;21.60;99.90
2855;DHT22;1435;49.472;10.940;2022-08-19T14:58:58;21.50;99.90
2855;DHT22;1435;49.472;10.940;2022-08-19T15:04:03;21.40;99.90
2855;DHT22;1435;49.472;10.940;2022-08-19T15:09:04;21.30;99.90
2855;DHT22;1435;49.472;10.940;2022-08-19T15:14:06;21.30;99.90
2855;DHT22;1435;49.472;10.940;2022-08-19T15:19:11;21.30;99.90
2855;DHT22;1435;49.472;10.940;2022-08-19T15:24:13;21.10;99.90
2855;DHT22;1435;49.472;10.940;2022-08-19T15:29:15;21.00;99.90
2855;DHT22;1435;49.472;10.940;2022-08-19T15:34:18;20.90;99.90
2855;DHT22;1435;49.472;10.940;2022-08-19T15:39:20;20.80;99.90
2855;DHT22;1435;49.472;10.940;2022-08-19T15:44:21;20.80;99.90
2855;DHT22;1435;49.472;10.940;2022-08-19T15:49:24;20.80;99.90
2855;DHT22;1435;49.472;10.940;2022-08-19T15:54:26;20.70;99.90
2855;DHT22;1435;49.472;10.940;2022-08-19T15:59:28;20.70;99.90
2855;DHT22;1435;49.472;10.940;2022-08-19T16:04:50;20.70;99.90
2855;DHT22;1435;49.472;10.940;2022-08-19T16:10:09;20.70;99.90
2855;DHT22;1435;49.472;10.940;2022-08-19T16:15:14;20.70;99.90
2855;DHT22;1435;49.472;10.940;2022-08-19T16:20:17;20.60;99.90
2855;DHT22;1435;49.472;10.940;2022-08-19T16:25:21;20.40;99.90
2855;DHT22;1435;49.472;10.940;2022-08-19T16:30:26;20.40;99.90
2855;DHT22;1435;49.472;10.940;2022-08-19T16:35:30;20.40;99.90
2855;DHT22;1435;49.472;10.940;2022-08-19T16:40:31;20.30;99.90
2855;DHT22;1435;49.472;10.940;2022-08-19T16:45:33;20.40;99.90
2855;DHT22;1435;49.472;10.940;2022-08-19T16:50:36;20.40;99.90
2855;DHT22;1435;49.472;10.940;2022-08-19T16:55:38;20.40;99.90
2855;DHT22;1435;49.472;10.940;2022-08-19T17:00:40;20.40;99.90
2855;DHT22;1435;49.472;10.940;2022-08-19T17:05:44;20.30;99.90
2855;DHT22;1435;49.472;10.940;2022-08-19T17:10:46;20.30;99.90
2855;DHT22;1435;49.472;10.940;2022-08-19T17:15:49;20.30;99.90
2855;DHT22;1435;49.472;10.940;2022-08-19T17:20:52;20.30;99.90
2855;DHT22;1435;49.472;10.940;2022-08-19T17:25:56;20.30;99.90
2855;DHT22;1435;49.472;10.940;2022-08-19T17:30:58;20.30;99.90
2855;DHT22;1435;49.472;10.940;2022-08-19T17:36:02;20.30;99.90
2855;DHT22;1435;49.472;10.940;2022-08-19T17:41:06;20.30;99.90
2855;DHT22;1435;49.472;10.940;2022-08-19T17:46:07;20.30;99.90
2855;DHT22;1435;49.472;10.940;2022-08-19T17:51:15;20.20;99.90
2855;DHT22;1435;49.472;10.940;2022-08-19T17:56:17;20.20;99.90
2855;DHT22;1435;49.472;10.940;2022-08-19T18:01:19;20.20;99.90
2855;DHT22;1435;49.472;10.940;2022-08-19T18:06:22;20.20;99.90
2855;DHT22;1435;49.472;10.940;2022-08-19T18:11:23;20.20;99.90
2855;DHT22;1435;49.472;10.940;2022-08-19T18:16:25;20.20;99.90
2855;DHT22;1435;49.472;10.940;2022-08-19T18:21:28;20.20;99.90
2855;DHT22;1435;49.472;10.940;2022-08-19T18:26:31;20.20;99.90
2855;DHT22;1435;49.472;10.940;2022-08-19T18:31:33;20.20;99.90
2855;DHT22;1435;49.472;10.940;2022-08-19T18:36:36;20.20;99.90
2855;DHT22;1435;49.472;10.940;2022-08-19T18:41:38;20.20;99.90
2855;DHT22;1435;49.472;10.940;2022-08-19T18:46:57;20.10;99.90
2855;DHT22;1435;49.472;10.940;2022-08-19T18:52:18;20.10;99.90
2855;DHT22;1435;49.472;10.940;2022-08-19T18:57:21;20.00;99.90
2855;DHT22;1435;49.472;10.940;2022-08-19T19:02:24;20.00;99.90
2855;DHT22;1435;49.472;10.940;2022-08-19T19:07:28;20.00;99.90
2855;DHT22;1435;49.472;10.940;2022-08-19T19:12:30;19.90;99.90
2855;DHT22;1435;49.472;10.940;2022-08-19T19:17:32;19.90;99.90
2855;DHT22;1435;49.472;10.940;2022-08-19T19:22:35;19.90;99.90
2855;DHT22;1435;49.472;10.940;2022-08-19T19:27:37;19.90;99.90
2855;DHT22;1435;49.472;10.940;2022-08-19T19:32:40;19.80;99.90
2855;DHT22;1435;49.472;10.940;2022-08-19T19:37:44;19.80;99.90
2855;DHT22;1435;49.472;10.940;2022-08-19T19:42:51;19.80;99.90
2855;DHT22;1435;49.472;10.940;2022-08-19T19:47:55;19.70;99.90
2855;DHT22;1435;49.472;10.940;2022-08-19T19:53:00;19.70;99.90
2855;DHT22;1435;49.472;10.940;2022-08-19T19:58:02;19.70;99.90
2855;DHT22;1435;49.472;10.940;2022-08-19T20:03:06;19.70;99.90
2855;DHT22;1435;49.472;10.940;2022-08-19T20:08:10;19.60;99.90
2855;DHT22;1435;49.472;10.940;2022-08-19T20:13:31;19.60;99.90
2855;DHT22;1435;49.472;10.940;2022-08-19T20:18:34;19.60;99.90
2855;DHT22;1435;49.472;10.940;2022-08-19T20:23:37;19.60;99.90
2855;DHT22;1435;49.472;10.940;2022-08-19T20:28:39;19.60;99.90
2855;DHT22;1435;49.472;10.940;2022-08-19T20:33:40;19.50;99.90
2855;DHT22;1435;49.472;10.940;2022-08-19T20:38:44;19.50;99.90
2855;DHT22;1435;49.472;10.940;2022-08-19T20:43:46;19.50;99.90
2855;DHT22;1435;49.472;10.940;2022-08-19T20:48:48;19.50;99.90
2855;DHT22;1435;49.472;10.940;2022-08-19T20:53:51;19.50;99.90
2855;DHT22;1435;49.472;10.940;2022-08-19T20:58:53;19.50;99.90
2855;DHT22;1435;49.472;10.940;2022-08-19T21:03:55;19.40;99.90
2855;DHT22;1435;49.472;10.940;2022-08-19T21:08:58;19.40;99.90
2855;DHT22;1435;49.472;10.940;2022-08-19T21:14:00;19.40;99.90
2855;DHT22;1435;49.472;10.940;2022-08-19T21:19:02;19.30;99.90
2855;DHT22;1435;49.472;10.940;2022-08-19T21:24:06;19.30;99.90
2855;DHT22;1435;49.472;10.940;2022-08-19T21:29:08;19.40;99.90
2855;DHT22;1435;49.472;10.940;2022-08-19T21:34:09;19.40;99.90
2855;DHT22;1435;49.472;10.940;2022-08-19T21:39:12;19.40;99.90
2855;DHT22;1435;49.472;10.940;2022-08-19T21:44:14;19.40;99.90
2855;DHT22;1435;49.472;10.940;2022-08-19T21:49:16;19.30;99.90
2855;DHT22;1435;49.472;10.940;2022-08-19T21:54:20;19.30;99.90
2855;DHT22;1435;49.472;10.940;2022-08-19T21:59:22;19.30;99.90
2855;DHT22;1435;49.472;10.940;2022-08-19T22:04:23;19.40;99.90
2855;DHT22;1435;49.472;10.940;2022-08-19T22:09:26;19.40;99.90
2855;DHT22;1435;49.472;10.940;2022-08-19T22:14:28;19.40;99.90
2855;DHT22;1435;49.472;10.940;2022-08-19T22:19:30;19.40;99.90
2855;DHT22;1435;49.472;10.940;2022-08-19T22:24:34;19.40;99.90
2855;DHT22;1435;49.472;10.940;2022-08-19T22:29:35;19.40;99.90
2855;DHT22;1435;49.472;10.940;2022-08-19T22:34:37;19.40;99.90
2855;DHT22;1435;49.472;10.940;2022-08-19T22:39:41;19.40;99.90
2855;DHT22;1435;49.472;10.940;2022-08-19T22:44:42;19.40;99.90
2855;DHT22;1435;49.472;10.940;2022-08-19T22:49:45;19.40;99.90
2855;DHT22;1435;49.472;10.940;2022-08-19T22:54:50;19.40;99.90
2855;DHT22;1435;49.472;10.940;2022-08-19T22:59:53;19.40;99.90
2855;DHT22;1435;49.472;10.940;2022-08-19T23:04:59;19.40;99.90
2855;DHT22;1435;49.472;10.940;2022-08-19T23:10:04;19.40;99.90
2855;DHT22;1435;49.472;10.940;2022-08-19T23:15:09;19.40;99.90
2855;DHT22;1435;49.472;10.940;2022-08-19T23:20:13;19.40;99.90
2855;DHT22;1435;49.472;10.940;2022-08-19T23:25:20;19.40;99.90
2855;DHT22;1435;49.472;10.940;2022-08-19T23:30:22;19.40;99.90
2855;DHT22;1435;49.472;10.940;2022-08-19T23:35:31;19.40;99.90
2855;DHT22;1435;49.472;10.940;2022-08-19T23:40:36;19.50;99.90
2855;DHT22;1435;49.472;10.940;2022-08-19T23:45:40;19.50;99.90
2855;DHT22;1435;49.472;10.940;2022-08-19T23:50:43;19.50;99.90
2855;DHT22;1435;49.472;10.940;2022-08-19T23:55:47;19.50;99.90
